createdAt,value
2023-02-07T00:01:24.658Z,3.13
2023-02-07T00:03:52.101Z,3.05
2023-02-07T00:06:27.983Z,2.90
2023-02-07T00:08:54.966Z,3.83
2023-02-07T00:11:23.452Z,2.72
2023-02-07T00:13:53.340Z,3.28
2023-02-07T00:16:21.489Z,3.67
2023-02-07T00:18:48.951Z,3.42
2023-02-07T00:21:19.882Z,3.45
2023-02-07T00:23:47.481Z,3.00
2023-02-07T00:26:15.812Z,4.10
2023-02-07T00:28:45.490Z,3.22
2023-02-07T00:31:21.576Z,2.78
2023-02-07T00:36:20.265Z,3.08
2023-02-07T00:38:48.636Z,3.75
2023-02-07T00:41:18.582Z,2.92
2023-02-07T00:43:47.093Z,3.05
2023-02-07T00:46:14.670Z,2.85
2023-02-07T00:48:42.063Z,3.17
2023-02-07T00:51:10.180Z,2.78
2023-02-07T00:53:37.171Z,3.58
2023-02-07T00:56:04.452Z,2.53
2023-02-07T00:58:31.674Z,3.22
2023-02-07T01:00:58.779Z,2.45
2023-02-07T01:03:26.186Z,2.70
2023-02-07T01:05:53.487Z,2.78
2023-02-07T01:08:20.690Z,3.10
2023-02-07T01:10:48.378Z,3.05
2023-02-07T01:13:16.403Z,2.83
2023-02-07T01:15:46.481Z,2.40
2023-02-07T01:18:15.473Z,2.40
2023-02-07T01:20:42.815Z,2.85
2023-02-07T01:23:11.727Z,2.80
2023-02-07T01:25:39.327Z,2.63
2023-02-07T01:28:06.789Z,3.22
2023-02-07T01:30:34.343Z,2.53
2023-02-07T01:33:01.641Z,3.33
2023-02-07T01:35:28.577Z,3.13
2023-02-07T01:37:58.310Z,2.83
2023-02-07T01:40:27.211Z,2.83
2023-02-07T01:42:54.418Z,3.10
2023-02-07T01:45:24.669Z,2.95
2023-02-07T01:47:53.879Z,3.53
2023-02-07T01:50:21.590Z,3.15
2023-02-07T01:52:49.268Z,3.47
2023-02-07T01:55:25.894Z,3.10
2023-02-07T01:57:53.811Z,3.75
2023-02-07T02:00:22.013Z,3.58
2023-02-07T02:02:49.358Z,4.20
2023-02-07T02:05:17.891Z,3.53
2023-02-07T02:07:45.071Z,4.20
2023-02-07T02:10:17.413Z,4.15
2023-02-07T02:12:44.589Z,4.00
2023-02-07T02:15:36.216Z,3.55
2023-02-07T02:18:15.888Z,3.08
2023-02-07T02:21:08.157Z,3.53
2023-02-07T02:24:08.873Z,3.70
2023-02-07T02:26:56.927Z,3.50
2023-02-07T02:29:53.860Z,3.78
2023-02-07T02:35:11.726Z,4.20
2023-02-07T02:37:59.226Z,3.90
2023-02-07T02:43:37.266Z,4.15
2023-02-07T02:46:30.103Z,3.90
2023-02-07T02:48:59.590Z,4.07
2023-02-07T02:51:29.573Z,5.05
2023-02-07T02:53:58.356Z,5.10
2023-02-07T02:56:50.132Z,3.92
2023-02-07T02:59:53.901Z,4.78
2023-02-07T03:02:42.784Z,4.93
2023-02-07T03:05:31.386Z,4.75
2023-02-07T03:08:18.095Z,4.63
2023-02-07T03:11:03.589Z,4.38
2023-02-07T03:13:30.862Z,4.65
2023-02-07T03:16:34.714Z,4.82
2023-02-07T03:19:13.142Z,4.45
2023-02-07T03:21:49.918Z,5.38
2023-02-07T03:24:34.139Z,4.82
2023-02-07T03:27:07.183Z,4.80
2023-02-07T03:29:37.048Z,5.00
2023-02-07T03:32:07.867Z,4.90
2023-02-07T03:34:54.832Z,4.57
2023-02-07T03:37:38.038Z,5.80
2023-02-07T03:40:06.336Z,5.43
2023-02-07T03:42:59.243Z,5.90
2023-02-07T03:45:26.317Z,5.15
2023-02-07T03:47:53.560Z,5.10
2023-02-07T03:50:20.812Z,5.70
2023-02-07T03:52:48.363Z,6.05
2023-02-07T03:55:15.787Z,5.60
2023-02-07T03:57:43.130Z,6.05
2023-02-07T04:00:10.955Z,6.05
2023-02-07T04:02:41.359Z,5.88
2023-02-07T04:05:09.106Z,6.60
2023-02-07T04:07:36.747Z,5.78
2023-02-07T04:10:05.544Z,5.80
2023-02-07T04:12:32.992Z,5.93
2023-02-07T04:15:00.728Z,5.45
2023-02-07T04:17:30.823Z,6.97
2023-02-07T04:19:58.813Z,5.70
2023-02-07T04:22:25.746Z,6.05
2023-02-07T04:24:52.753Z,5.53
2023-02-07T04:27:19.927Z,6.38
2023-02-07T04:29:47.138Z,6.20
2023-02-07T04:32:14.338Z,6.20
2023-02-07T04:34:41.553Z,5.40
2023-02-07T04:37:08.548Z,6.47
2023-02-07T04:39:35.807Z,6.03
2023-02-07T04:42:03.028Z,6.03
2023-02-07T04:44:30.271Z,6.28
2023-02-07T04:46:57.060Z,5.97
2023-02-07T04:49:24.293Z,5.65
2023-02-07T04:51:51.500Z,5.40
2023-02-07T04:54:18.714Z,6.00
2023-02-07T04:56:45.952Z,6.13
2023-02-07T04:59:13.159Z,6.22
2023-02-07T05:01:40.388Z,6.82
2023-02-07T05:04:07.655Z,6.53
2023-02-07T05:06:34.926Z,6.45
2023-02-07T05:09:01.762Z,6.88
2023-02-07T05:11:28.984Z,7.57
2023-02-07T05:13:56.207Z,7.03
2023-02-07T05:16:22.978Z,7.03
2023-02-07T05:18:50.204Z,7.22
2023-02-07T05:21:17.414Z,7.05
2023-02-07T05:23:44.963Z,6.95
2023-02-07T05:26:12.253Z,6.57
2023-02-07T05:28:39.047Z,6.65
2023-02-07T05:31:05.994Z,6.82
2023-02-07T05:33:33.266Z,6.72
2023-02-07T05:36:02.958Z,7.55
2023-02-07T05:38:37.067Z,8.13
2023-02-07T05:41:04.510Z,6.88
2023-02-07T05:43:31.711Z,7.07
2023-02-07T05:45:58.893Z,7.90
2023-02-07T05:48:26.087Z,7.75
2023-02-07T05:50:52.867Z,8.93
2023-02-07T05:53:19.681Z,6.63
2023-02-07T05:55:46.926Z,7.45
2023-02-07T05:58:13.779Z,7.35
2023-02-07T06:00:41.093Z,7.70
2023-02-07T06:03:08.299Z,7.97
2023-02-07T06:05:35.534Z,8.35
2023-02-07T06:08:02.355Z,7.40
2023-02-07T06:10:29.976Z,8.35
2023-02-07T06:12:56.989Z,8.43
2023-02-07T06:15:24.181Z,8.10
2023-02-07T06:17:51.022Z,8.25
2023-02-07T06:20:18.298Z,7.38
2023-02-07T06:22:45.501Z,8.32
2023-02-07T06:25:12.739Z,8.45
2023-02-07T06:27:40.770Z,8.32
2023-02-07T06:30:09.311Z,8.73
2023-02-07T06:32:36.194Z,8.60
2023-02-07T06:35:03.577Z,8.95
2023-02-07T06:37:30.786Z,8.93
2023-02-07T06:39:57.631Z,7.88
2023-02-07T06:42:24.843Z,9.48
2023-02-07T06:44:52.131Z,9.10
2023-02-07T06:47:20.780Z,9.05
2023-02-07T06:49:47.879Z,9.30
2023-02-07T06:52:15.269Z,9.65
2023-02-07T06:54:42.618Z,8.27
2023-02-07T06:57:09.887Z,8.27
2023-02-07T06:59:36.837Z,9.10
2023-02-07T07:02:04.228Z,8.00
2023-02-07T07:04:31.534Z,8.38
2023-02-07T07:06:58.786Z,8.45
2023-02-07T07:09:26.448Z,8.05
2023-02-07T07:11:53.669Z,8.70
2023-02-07T07:14:21.116Z,8.90
2023-02-07T07:16:48.331Z,9.77
2023-02-07T07:19:15.555Z,9.13
2023-02-07T07:21:42.745Z,9.73
2023-02-07T07:24:09.601Z,9.27
2023-02-07T07:26:48.845Z,9.82
2023-02-07T07:29:19.119Z,9.85
2023-02-07T07:31:47.417Z,9.95
2023-02-07T07:34:15.393Z,9.65
2023-02-07T07:36:42.740Z,10.15
2023-02-07T07:39:10.735Z,10.73
2023-02-07T07:41:37.824Z,9.30
2023-02-07T07:44:05.063Z,10.38
2023-02-07T07:46:32.347Z,11.55
2023-02-07T07:48:59.760Z,9.85
2023-02-07T07:51:27.976Z,9.02
2023-02-07T07:53:55.532Z,8.73
2023-02-07T07:56:22.694Z,9.73
2023-02-07T07:58:50.108Z,9.32
2023-02-07T08:01:17.552Z,9.10
2023-02-07T08:03:44.825Z,10.23
2023-02-07T08:06:12.026Z,9.75
2023-02-07T08:08:40.248Z,9.02
2023-02-07T08:11:10.148Z,9.23
2023-02-07T08:13:38.011Z,9.70
2023-02-07T08:16:11.039Z,8.85
2023-02-07T08:18:38.288Z,10.20
2023-02-07T08:21:05.564Z,9.32
2023-02-07T08:23:33.087Z,10.02
2023-02-07T08:26:00.367Z,10.45
2023-02-07T08:28:28.378Z,9.40
2023-02-07T08:30:55.847Z,9.15
2023-02-07T08:33:23.021Z,8.32
2023-02-07T08:35:51.065Z,10.02
2023-02-07T08:38:18.563Z,9.02
2023-02-07T08:40:46.867Z,9.77
2023-02-07T08:43:14.646Z,9.13
2023-02-07T08:45:46.165Z,9.73
2023-02-07T08:48:13.423Z,9.10
2023-02-07T08:50:40.992Z,9.70
2023-02-07T08:53:08.584Z,9.45
2023-02-07T08:55:35.804Z,8.80
2023-02-07T08:58:03.186Z,8.93
2023-02-07T09:00:30.376Z,10.48
2023-02-07T09:02:57.270Z,9.15
2023-02-07T09:05:24.674Z,8.43
2023-02-07T09:07:51.867Z,9.25
2023-02-07T09:10:19.102Z,8.05
2023-02-07T09:12:45.913Z,9.00
2023-02-07T09:15:13.150Z,8.27
2023-02-07T09:17:40.096Z,8.13
2023-02-07T09:20:07.621Z,8.48
2023-02-07T09:22:54.868Z,9.40
2023-02-07T09:25:22.137Z,8.57
2023-02-07T09:27:49.757Z,8.25
2023-02-07T09:30:17.062Z,8.52
2023-02-07T09:32:44.525Z,8.27
2023-02-07T09:35:11.759Z,9.23
2023-02-07T09:37:48.835Z,7.88
2023-02-07T09:40:19.183Z,7.68
2023-02-07T09:42:46.487Z,8.80
2023-02-07T09:45:19.430Z,8.15
2023-02-07T09:47:53.463Z,9.05
2023-02-07T09:50:32.117Z,8.52
2023-02-07T09:53:15.751Z,9.80
2023-02-07T09:55:59.354Z,8.10
2023-02-07T09:58:26.527Z,8.60
2023-02-07T10:01:06.912Z,9.27
2023-02-07T10:03:41.948Z,9.05
2023-02-07T10:06:19.953Z,9.00
2023-02-07T10:08:54.104Z,7.53
2023-02-07T10:11:21.329Z,7.70
2023-02-07T10:14:02.078Z,8.02
2023-02-07T10:16:47.765Z,8.13
2023-02-07T10:19:44.019Z,7.63
2023-02-07T10:25:13.057Z,7.78
2023-02-07T10:27:54.684Z,7.68
2023-02-07T10:30:37.264Z,7.30
2023-02-07T10:33:27.816Z,8.07
2023-02-07T10:35:55.470Z,8.73
2023-02-07T10:38:44.072Z,8.45
2023-02-07T10:41:35.424Z,7.25
2023-02-07T10:44:02.873Z,7.72
2023-02-07T10:46:30.401Z,7.07
2023-02-07T10:48:57.690Z,6.45
2023-02-07T10:51:41.610Z,7.50
2023-02-07T10:54:11.767Z,7.75
2023-02-07T10:56:50.423Z,6.75
2023-02-07T10:59:46.721Z,6.63
2023-02-07T11:02:28.357Z,5.38
2023-02-07T11:04:56.866Z,6.38
2023-02-07T11:07:24.177Z,6.15
2023-02-07T11:09:51.510Z,6.85
2023-02-07T11:12:21.278Z,6.15
2023-02-07T11:15:19.044Z,6.30
2023-02-07T11:17:55.004Z,6.20
2023-02-07T11:20:34.121Z,6.43
2023-02-07T11:23:06.809Z,7.38
2023-02-07T11:25:38.583Z,6.07
2023-02-07T11:28:07.121Z,6.28
2023-02-07T11:30:37.156Z,6.43
2023-02-07T11:33:16.966Z,6.15
2023-02-07T11:36:19.875Z,5.30
2023-02-07T11:38:49.674Z,5.80
2023-02-07T11:41:25.571Z,5.93
2023-02-07T11:43:55.725Z,6.40
2023-02-07T11:46:30.169Z,6.05
2023-02-07T11:48:58.876Z,5.60
2023-02-07T11:51:26.265Z,6.32
2023-02-07T11:54:06.211Z,6.32
2023-02-07T11:56:33.645Z,5.75
2023-02-07T11:59:05.896Z,5.63
2023-02-07T12:01:34.953Z,6.20
2023-02-07T12:04:21.894Z,5.93
2023-02-07T12:07:04.209Z,6.00
2023-02-07T12:09:55.852Z,6.00
2023-02-07T12:12:35.345Z,5.82
2023-02-07T12:15:09.502Z,5.30
2023-02-07T12:17:57.665Z,5.57
2023-02-07T12:20:25.047Z,6.47
2023-02-07T12:23:41.899Z,5.93
2023-02-07T12:26:22.061Z,5.82
2023-02-07T12:28:49.236Z,6.68
2023-02-07T12:31:41.282Z,5.72
2023-02-07T12:34:33.482Z,5.63
2023-02-07T12:37:16.199Z,5.25
2023-02-07T12:39:50.168Z,5.35
2023-02-07T12:42:26.161Z,5.82
2023-02-07T12:44:57.850Z,5.38
2023-02-07T12:47:41.679Z,5.88
2023-02-07T12:50:37.831Z,5.30
2023-02-07T12:53:13.961Z,4.68
2023-02-07T12:58:16.700Z,5.28
2023-02-07T13:00:52.735Z,5.88
2023-02-07T13:05:52.776Z,4.30
2023-02-07T13:08:46.972Z,5.25
2023-02-07T13:11:23.999Z,5.25
2023-02-07T13:13:51.175Z,5.30
2023-02-07T13:16:47.022Z,5.15
2023-02-07T13:19:37.915Z,5.13
2023-02-07T13:22:50.429Z,4.90
2023-02-07T13:25:23.647Z,5.00
2023-02-07T13:27:53.884Z,4.80
2023-02-07T13:30:21.960Z,5.55
2023-02-07T13:32:50.529Z,5.00
2023-02-07T13:35:27.753Z,5.10
2023-02-07T13:38:31.542Z,4.90
2023-02-07T13:41:09.667Z,4.18
2023-02-07T13:44:09.308Z,5.97
2023-02-07T13:47:04.771Z,4.75
2023-02-07T13:49:53.326Z,5.25
2023-02-07T13:52:20.506Z,4.32
2023-02-07T13:55:17.704Z,4.80
2023-02-07T13:58:04.005Z,4.90
2023-02-07T14:00:35.796Z,4.80
2023-02-07T14:03:06.538Z,4.25
2023-02-07T14:05:37.932Z,4.93
2023-02-07T14:08:22.149Z,4.20
2023-02-07T14:10:56.353Z,3.85
2023-02-07T14:13:33.790Z,4.28
2023-02-07T14:16:10.237Z,4.88
2023-02-07T14:18:44.471Z,3.80
2023-02-07T14:21:32.336Z,4.72
2023-02-07T14:24:01.975Z,4.18
2023-02-07T14:26:37.894Z,5.00
2023-02-07T14:29:23.051Z,4.13
2023-02-07T14:31:50.396Z,3.70
2023-02-07T14:34:20.989Z,4.25
2023-02-07T14:36:48.784Z,4.00
2023-02-07T14:39:18.604Z,4.05
2023-02-07T14:41:47.944Z,3.97
2023-02-07T14:44:29.201Z,3.90
2023-02-07T14:46:58.879Z,3.60
2023-02-07T14:49:47.663Z,3.88
2023-02-07T14:52:26.826Z,3.45
2023-02-07T14:54:58.775Z,3.70
2023-02-07T14:57:48.790Z,3.50
2023-02-07T15:00:16.011Z,3.58
2023-02-07T15:02:58.583Z,3.58
2023-02-07T15:05:36.895Z,2.85
2023-02-07T15:08:04.094Z,3.28
2023-02-07T15:10:37.695Z,3.00
2023-02-07T15:13:15.387Z,3.28
2023-02-07T15:15:50.270Z,3.20
2023-02-07T15:18:18.865Z,3.53
2023-02-07T15:20:52.127Z,3.30
2023-02-07T15:23:19.924Z,4.32
2023-02-07T15:25:47.613Z,3.63
2023-02-07T15:28:29.171Z,3.90
2023-02-07T15:31:01.350Z,2.95
2023-02-07T15:33:51.043Z,3.55
2023-02-07T15:36:40.584Z,3.13
2023-02-07T15:39:19.480Z,3.50
2023-02-07T15:41:47.386Z,3.25
2023-02-07T15:44:31.515Z,3.15
2023-02-07T15:47:07.336Z,3.75
2023-02-07T15:49:35.299Z,3.78
2023-02-07T15:52:40.307Z,3.15
2023-02-07T15:55:18.709Z,3.70
2023-02-07T15:57:45.720Z,3.30
2023-02-07T16:00:24.190Z,3.60
2023-02-07T16:02:58.551Z,3.60
2023-02-07T16:05:34.539Z,3.03
2023-02-07T16:08:02.156Z,3.42
2023-02-07T16:10:36.279Z,3.35
2023-02-07T16:13:19.411Z,2.88
2023-02-07T16:16:09.859Z,2.92
2023-02-07T16:18:48.201Z,3.20
2023-02-07T16:21:27.749Z,3.08
2023-02-07T16:24:04.599Z,3.10
2023-02-07T16:26:31.974Z,3.90
2023-02-07T16:28:59.323Z,3.30
2023-02-07T16:31:26.844Z,3.55
2023-02-07T16:33:53.685Z,3.80
2023-02-07T16:36:20.909Z,3.33
2023-02-07T16:38:48.134Z,3.70
2023-02-07T16:41:39.031Z,3.40
2023-02-07T16:44:09.251Z,3.58
2023-02-07T16:46:36.315Z,3.88
2023-02-07T16:49:03.637Z,3.38
2023-02-07T16:51:30.578Z,3.38
2023-02-07T16:53:57.849Z,3.40
2023-02-07T16:56:26.868Z,3.53
2023-02-07T16:58:54.085Z,3.50
2023-02-07T17:01:22.273Z,3.28
2023-02-07T17:03:49.647Z,3.55
2023-02-07T17:06:18.383Z,3.70
2023-02-07T17:08:45.700Z,4.18
2023-02-07T17:11:24.943Z,3.80
2023-02-07T17:13:56.368Z,3.50
2023-02-07T17:16:24.902Z,3.85
2023-02-07T17:18:52.442Z,3.58
2023-02-07T17:21:22.293Z,4.10
2023-02-07T17:23:51.014Z,4.22
2023-02-07T17:26:25.123Z,3.90
2023-02-07T17:28:53.158Z,3.90
2023-02-07T17:31:20.482Z,3.88
2023-02-07T17:33:48.331Z,3.83
2023-02-07T17:36:16.005Z,4.35
2023-02-07T17:38:43.700Z,4.22
2023-02-07T17:41:15.055Z,3.92
2023-02-07T17:43:42.369Z,4.20
2023-02-07T17:46:23.220Z,4.05
2023-02-07T17:48:51.092Z,4.20
2023-02-07T17:51:20.474Z,4.60
2023-02-07T17:53:47.707Z,4.80
2023-02-07T17:56:29.824Z,4.32
2023-02-07T17:58:59.569Z,4.45
2023-02-07T18:01:26.871Z,5.00
2023-02-07T18:03:54.756Z,4.60
2023-02-07T18:06:25.030Z,4.85
2023-02-07T18:08:52.486Z,4.75
2023-02-07T18:11:20.112Z,4.28
2023-02-07T18:13:48.193Z,4.40
2023-02-07T18:16:22.020Z,4.38
2023-02-07T18:18:50.479Z,4.20
2023-02-07T18:21:18.144Z,4.90
2023-02-07T18:23:45.503Z,4.78
2023-02-07T18:26:15.168Z,5.10
2023-02-07T18:28:45.005Z,5.13
2023-02-07T18:31:17.862Z,4.35
2023-02-07T18:33:45.301Z,4.72
2023-02-07T18:36:12.454Z,5.18
2023-02-07T18:38:39.686Z,5.80
2023-02-07T18:41:14.736Z,5.43
2023-02-07T18:43:42.537Z,5.45
2023-02-07T18:46:10.616Z,5.35
2023-02-07T18:48:37.997Z,4.85
2023-02-07T18:51:10.636Z,5.35
2023-02-07T18:53:38.191Z,5.78
2023-02-07T18:56:11.953Z,5.25
2023-02-07T18:58:39.037Z,5.53
2023-02-07T19:01:09.923Z,5.72
2023-02-07T19:03:38.549Z,5.97
2023-02-07T19:06:08.078Z,5.32
2023-02-07T19:08:35.816Z,5.93
2023-02-07T19:11:06.096Z,6.60
2023-02-07T19:13:34.439Z,5.85
2023-02-07T19:16:05.475Z,6.57
2023-02-07T19:18:32.721Z,6.55
2023-02-07T19:21:08.345Z,5.82
2023-02-07T19:23:35.689Z,5.40
2023-02-07T19:26:03.775Z,6.38
2023-02-07T19:28:32.084Z,6.50
2023-02-07T19:30:59.431Z,5.25
2023-02-07T19:33:26.688Z,6.30
2023-02-07T19:35:54.896Z,5.68
2023-02-07T19:38:21.765Z,5.45
2023-02-07T19:40:58.682Z,5.50
2023-02-07T19:43:26.017Z,5.78
2023-02-07T19:45:54.035Z,5.78
2023-02-07T19:48:22.339Z,6.57
2023-02-07T19:50:58.944Z,5.03
2023-02-07T19:53:26.774Z,4.97
2023-02-07T19:55:56.873Z,5.70
2023-02-07T19:58:24.846Z,5.28
2023-02-07T20:00:52.160Z,6.28
2023-02-07T20:03:19.292Z,5.88
2023-02-07T20:05:46.714Z,6.28
2023-02-07T20:08:14.169Z,5.43
2023-02-07T20:10:45.390Z,6.20
2023-02-07T20:13:12.881Z,6.07
2023-02-07T20:15:45.829Z,8.45
2023-02-07T20:18:13.589Z,7.32
2023-02-07T20:20:42.229Z,6.70
2023-02-07T20:23:10.635Z,5.53
2023-02-07T20:25:39.000Z,5.18
2023-02-07T20:28:07.450Z,6.03
2023-02-07T20:30:36.335Z,5.35
2023-02-07T20:33:03.298Z,4.72
2023-02-07T20:35:30.801Z,5.05
2023-02-07T20:37:58.153Z,6.38
2023-02-07T20:40:25.532Z,5.82
2023-02-07T20:42:52.969Z,5.13
2023-02-07T20:45:20.532Z,6.15
2023-02-07T20:47:47.917Z,6.13
2023-02-07T20:50:14.877Z,5.65
2023-02-07T20:52:42.244Z,5.38
2023-02-07T20:55:09.809Z,5.60
2023-02-07T20:57:36.920Z,5.55
2023-02-07T21:00:05.178Z,6.32
2023-02-07T21:02:32.679Z,5.13
2023-02-07T21:05:00.172Z,5.97
2023-02-07T21:07:27.747Z,5.72
2023-02-07T21:09:54.999Z,4.97
2023-02-07T21:12:22.576Z,5.60
2023-02-07T21:14:49.803Z,6.10
2023-02-07T21:17:17.053Z,5.97
2023-02-07T21:19:44.511Z,5.78
2023-02-07T21:22:11.818Z,5.72
2023-02-07T21:24:39.049Z,5.90
2023-02-07T21:27:05.942Z,6.30
2023-02-07T21:29:36.248Z,6.13
2023-02-07T21:32:03.185Z,5.43
2023-02-07T21:34:30.394Z,5.85
2023-02-07T21:36:57.950Z,5.72
2023-02-07T21:39:25.179Z,6.20
2023-02-07T21:41:52.149Z,5.78
2023-02-07T21:44:21.206Z,6.45
2023-02-07T21:46:52.226Z,6.97
2023-02-07T21:49:20.737Z,6.53
2023-02-07T21:51:49.125Z,6.57
2023-02-07T21:54:16.753Z,6.07
2023-02-07T21:56:44.839Z,7.30
2023-02-07T21:59:16.934Z,6.28
2023-02-07T22:01:45.096Z,6.78
2023-02-07T22:04:12.525Z,5.97
2023-02-07T22:06:42.263Z,6.10
2023-02-07T22:09:11.529Z,7.40
2023-02-07T22:11:38.778Z,7.95
2023-02-07T22:14:06.344Z,7.32
2023-02-07T22:16:34.793Z,7.60
2023-02-07T22:19:03.756Z,7.22
2023-02-07T22:21:33.888Z,7.28
2023-02-07T22:24:01.890Z,8.23
2023-02-07T22:26:29.595Z,7.88
2023-02-07T22:28:56.834Z,7.72
2023-02-07T22:31:26.426Z,9.32
2023-02-07T22:33:55.014Z,7.57
2023-02-07T22:36:27.464Z,8.68
2023-02-07T22:38:55.080Z,7.40
2023-02-07T22:41:22.093Z,8.05
2023-02-07T22:43:49.553Z,8.10
2023-02-07T22:46:18.864Z,6.50
2023-02-07T22:48:46.404Z,8.15
2023-02-07T22:51:20.986Z,8.70
2023-02-07T22:53:49.547Z,7.90
2023-02-07T22:56:16.829Z,7.43
2023-02-07T22:58:43.799Z,7.80
2023-02-07T23:01:24.597Z,8.45
2023-02-07T23:03:52.395Z,8.43
2023-02-07T23:06:20.570Z,7.90
2023-02-07T23:08:48.148Z,7.63
2023-02-07T23:11:16.307Z,7.65
2023-02-07T23:13:43.958Z,7.90
2023-02-07T23:16:15.500Z,7.65
2023-02-07T23:18:43.118Z,6.50
2023-02-07T23:21:15.373Z,8.02
2023-02-07T23:23:43.014Z,7.78
2023-02-07T23:26:12.266Z,6.78
2023-02-07T23:28:39.894Z,8.27
2023-02-07T23:31:12.209Z,7.28
2023-02-07T23:33:39.694Z,7.80
2023-02-07T23:36:07.136Z,7.40
2023-02-07T23:38:34.391Z,7.07
2023-02-07T23:41:01.792Z,7.50
2023-02-07T23:43:29.081Z,7.85
2023-02-07T23:45:56.341Z,7.90
2023-02-07T23:48:23.420Z,7.63
2023-02-07T23:50:55.179Z,8.68
2023-02-07T23:53:22.422Z,7.93
2023-02-07T23:55:50.555Z,7.80
2023-02-07T23:58:17.874Z,8.02
